MST,Max TemperatureF,Mean TemperatureF,Min TemperatureF,Max Dew PointF,MeanDew PointF,Min DewpointF,Max Humidity, Mean Humidity, Min Humidity, Max Sea Level PressureIn, Mean Sea Level PressureIn, Min Sea Level PressureIn, Max VisibilityMiles, Mean VisibilityMiles, Min VisibilityMiles, Max Wind SpeedMPH, Mean Wind SpeedMPH, Max Gust SpeedMPH,PrecipitationIn, CloudCover, Events, WindDirDegrees
2013-2-1,32,19,6,25,14,3,100,91,69,30.45,30.35,30.30,15,5,0,5,1,,0.00,2,Fog,268
2013-2-2,26,16,5,25,11,3,100,92,79,30.53,30.47,30.39,10,2,0,6,1,,0.00,3,Fog,261
2013-2-3,30,19,8,27,17,7,100,92,69,30.38,30.28,30.19,6,2,0,6,1,,0.00,2,Fog,298
2013-2-4,57,32,6,23,11,0,100,86,12,30.28,30.24,30.19,3,1,0,5,0,,0.00,1,Fog,306
2013-2-5,33,20,8,28,16,5,100,90,65,30.21,30.09,29.93,10,3,0,8,1,,0.00,4,,274
2013-2-6,33,22,12,28,22,10,100,90,70,30.21,30.05,29.92,8,3,2,12,5,,0.00,3,,310
2013-2-7,33,20,6,25,13,3,100,85,56,30.22,30.11,29.89,15,6,0,9,2,,0.00,2,,96
2013-2-8,41,36,30,34,26,19,100,74,56,29.89,29.76,29.65,15,10,0,29,8,37,0.00,5,Rain-Snow,97
2013-2-9,32,24,17,28,24,18,100,90,75,29.87,29.76,29.70,15,7,0,8,4,,0.00,7,Snow,261
2013-2-10,28,24,21,25,21,18,93,88,80,30.02,29.93,29.87,10,7,2,13,6,,0.01,7,Snow,274
2013-2-11,26,16,6,21,15,3,100,89,69,30.25,30.12,30.02,10,8,1,6,2,,0.00,4,Snow,267
2013-2-12,24,14,5,21,12,1,100,88,69,30.39,30.33,30.26,10,8,2,7,1,,0.00,5,Snow,197
2013-2-13,33,28,23,27,21,19,93,83,60,30.39,30.34,30.28,10,7,5,5,1,,0.00,7,,230
2013-2-14,37,30,23,28,23,19,100,83,60,30.44,30.34,30.27,15,7,2,10,1,,0.00,4,Snow,320
2013-2-15,35,22,10,25,16,9,100,88,47,30.57,30.50,30.45,15,9,2,5,1,,0.00,1,Fog,176
2013-2-16,33,20,6,21,15,1,100,88,60,30.51,30.35,30.06,15,10,0,6,1,,0.00,0,,330
2013-2-17,35,26,17,28,20,14,100,84,60,30.10,29.99,29.88,15,8,2,21,3,,0.00,2,Fog,320
2013-2-18,33,22,12,19,14,10,100,83,55,30.19,30.09,29.96,15,11,10,6,1,,0.00,1,,272
2013-2-19,46,32,17,25,18,12,100,61,37,29.96,29.77,29.60,15,11,10,30,7,28,0.00,2,,117
2013-2-20,39,34,30,28,24,19,93,69,52,29.77,29.63,29.56,15,10,7,23,8,24,0.00,4,,301
2013-2-21,33,28,23,27,22,16,93,80,60,30.06,29.91,29.78,10,10,8,21,13,20,0.00,4,,283
2013-2-22,30,24,19,25,20,16,100,86,69,30.17,30.10,30.05,15,9,0,7,1,,0.00,5,Snow,169
2013-2-23,33,26,19,28,20,16,100,80,59,30.08,29.94,29.74,12,9,0,16,5,,0.00,7,Snow,252
2013-2-24,35,25,15,19,16,10,93,80,48,30.28,30.11,29.98,15,11,8,20,10,24,0.00,2,,303
2013-2-25,33,22,10,25,14,7,93,77,52,30.29,30.18,30.01,15,11,5,18,4,,0.00,4,,144
2013-2-26,32,24,15,27,18,10,100,85,60,30.34,30.17,30.06,15,7,0,23,5,32,0.00,4,Snow,293
2013-2-27,30,20,10,18,12,3,93,76,47,30.46,30.41,30.34,15,12,10,7,2,,0.00,2,,187
2013-2-28,35,24,14,23,15,9,86,70,48,30.58,30.46,30.43,15,11,10,9,2,,0.00,5,,143